createdAt,value
2022-08-11T00:01:21.218Z,63.07
2022-08-11T00:03:53.818Z,63.15
2022-08-11T00:06:32.380Z,63.24
2022-08-11T00:09:00.817Z,63.19
2022-08-11T00:11:46.764Z,63.16
2022-08-11T00:14:16.928Z,63.20
2022-08-11T00:16:53.009Z,63.33
2022-08-11T00:20:12.648Z,63.34
2022-08-11T00:22:23.596Z,63.39
2022-08-11T00:24:53.300Z,63.82
2022-08-11T00:27:32.500Z,63.88
2022-08-11T00:29:59.151Z,64.04
2022-08-11T00:32:26.881Z,64.06
2022-08-11T00:35:54.808Z,64.02
2022-08-11T00:37:48.407Z,64.12
2022-08-11T00:40:23.137Z,64.38
2022-08-11T00:43:21.272Z,64.61
2022-08-11T00:46:12.643Z,64.61
2022-08-11T00:49:02.373Z,64.51
2022-08-11T00:51:56.646Z,64.69
2022-08-11T00:54:45.043Z,64.81
2022-08-11T00:57:35.982Z,65.02
2022-08-11T01:00:19.105Z,65.00
2022-08-11T01:03:04.407Z,65.07
2022-08-11T01:05:51.704Z,65.10
2022-08-11T01:08:37.024Z,65.17
2022-08-11T01:11:06.725Z,65.36
2022-08-11T01:14:07.435Z,65.29
2022-08-11T01:16:53.025Z,65.21
2022-08-11T01:20:46.086Z,65.34
2022-08-11T01:23:01.024Z,65.13
2022-08-11T01:26:11.080Z,65.10
2022-08-11T01:29:08.817Z,65.05
2022-08-11T01:31:56.889Z,65.08
2022-08-11T01:34:26.851Z,65.24
2022-08-11T01:37:06.651Z,65.49
2022-08-11T01:39:51.800Z,65.52
2022-08-11T01:43:28.541Z,65.50
2022-08-11T01:46:16.723Z,65.53
2022-08-11T01:48:57.120Z,65.61
2022-08-11T01:52:18.761Z,65.71
2022-08-11T01:55:29.782Z,65.72
2022-08-11T01:58:21.216Z,65.90
2022-08-11T02:01:52.999Z,65.81
2022-08-11T02:04:34.013Z,65.89
2022-08-11T02:07:19.232Z,66.12
2022-08-11T02:09:55.370Z,66.16
2022-08-11T02:12:39.704Z,66.28
2022-08-11T02:15:43.710Z,66.27
2022-08-11T02:18:53.175Z,66.38
2022-08-11T02:21:46.182Z,66.54
2022-08-11T02:24:20.898Z,66.61
2022-08-11T02:26:56.719Z,66.82
2022-08-11T02:29:31.531Z,66.82
2022-08-11T02:32:29.673Z,66.82
2022-08-11T02:35:22.110Z,66.79
2022-08-11T02:38:01.018Z,66.90
2022-08-11T02:40:38.393Z,66.60
2022-08-11T02:43:15.130Z,66.78
2022-08-11T02:45:54.900Z,66.84
2022-08-11T02:48:39.847Z,66.62
2022-08-11T02:51:14.807Z,66.74
2022-08-11T02:54:20.658Z,66.63
2022-08-11T02:56:54.740Z,66.62
2022-08-11T02:59:55.278Z,66.77
2022-08-11T03:02:52.467Z,66.66
2022-08-11T03:05:49.980Z,66.62
2022-08-11T03:08:31.337Z,66.78
2022-08-11T03:11:25.903Z,66.74
2022-08-11T03:14:23.014Z,66.85
2022-08-11T03:16:49.987Z,66.96
2022-08-11T03:20:00.082Z,67.10
2022-08-11T03:23:19.359Z,67.27
2022-08-11T03:25:57.559Z,67.20
2022-08-11T03:29:02.988Z,67.15
2022-08-11T03:31:35.742Z,67.29
2022-08-11T03:34:25.630Z,67.51
2022-08-11T03:37:39.011Z,67.61
2022-08-11T03:40:43.828Z,67.51
2022-08-11T03:43:32.267Z,67.49
2022-08-11T03:46:10.337Z,67.52
2022-08-11T03:48:54.718Z,67.76
2022-08-11T03:51:30.598Z,67.79
2022-08-11T03:54:29.547Z,67.72
2022-08-11T03:57:37.979Z,67.87
2022-08-11T04:00:25.910Z,67.81
2022-08-11T04:03:15.666Z,67.86
2022-08-11T04:06:21.173Z,67.95
2022-08-11T04:08:56.705Z,67.86
2022-08-11T04:11:41.573Z,67.87
2022-08-11T04:15:17.470Z,67.94
2022-08-11T04:17:51.074Z,67.74
2022-08-11T04:20:35.807Z,68.11
2022-08-11T04:24:35.745Z,67.99
2022-08-11T04:26:57.481Z,68.00
2022-08-11T04:30:00.869Z,68.12
2022-08-11T04:32:48.842Z,68.16
2022-08-11T04:35:48.599Z,68.14
2022-08-11T04:38:45.488Z,68.18
2022-08-11T04:41:15.142Z,68.25
2022-08-11T04:44:05.570Z,68.43
2022-08-11T04:46:51.499Z,68.41
2022-08-11T04:49:58.113Z,68.53
2022-08-11T04:53:32.156Z,68.41
2022-08-11T04:56:35.235Z,68.25
2022-08-11T04:59:48.670Z,68.35
2022-08-11T05:02:36.791Z,68.44
2022-08-11T05:05:33.772Z,68.60
2022-08-11T05:08:29.487Z,68.34
2022-08-11T05:10:55.986Z,68.73
2022-08-11T05:13:50.481Z,68.82
2022-08-11T05:16:46.178Z,68.73
2022-08-11T05:19:49.840Z,68.67
2022-08-11T05:22:38.313Z,68.57
2022-08-11T05:26:44.736Z,68.61
2022-08-11T05:28:48.723Z,68.57
2022-08-11T05:31:36.974Z,68.72
2022-08-11T05:34:30.235Z,68.49
2022-08-11T05:37:25.225Z,68.62
2022-08-11T05:40:14.513Z,68.53
2022-08-11T05:43:09.382Z,68.52
2022-08-11T05:46:03.693Z,68.58
2022-08-11T05:48:54.865Z,68.48
2022-08-11T05:51:52.497Z,68.49
2022-08-11T05:54:42.222Z,68.39
2022-08-11T05:57:09.771Z,68.18
2022-08-11T05:59:36.818Z,68.33
2022-08-11T06:02:07.539Z,68.32
2022-08-11T06:04:34.667Z,68.16
2022-08-11T06:07:06.289Z,68.06
2022-08-11T06:09:53.012Z,68.09
2022-08-11T06:12:37.468Z,67.86
2022-08-11T06:15:07.448Z,67.76
2022-08-11T06:17:43.123Z,67.56
2022-08-11T06:20:12.418Z,67.74
2022-08-11T06:22:47.551Z,67.69
2022-08-11T06:25:18.031Z,67.58
2022-08-11T06:27:45.978Z,67.30
2022-08-11T06:30:15.996Z,67.35
2022-08-11T06:32:45.694Z,67.23
2022-08-11T06:35:48.398Z,67.17
2022-08-11T06:38:31.969Z,67.09
2022-08-11T06:41:23.099Z,66.94
2022-08-11T06:43:55.255Z,67.20
2022-08-11T06:46:30.595Z,66.99
2022-08-11T06:49:00.833Z,66.93
2022-08-11T06:51:32.562Z,66.68
2022-08-11T06:54:04.662Z,66.76
2022-08-11T06:57:28.278Z,66.50
2022-08-11T07:00:06.763Z,66.49
2022-08-11T07:02:52.195Z,66.09
2022-08-11T07:05:28.962Z,66.41
2022-08-11T07:08:33.538Z,66.19
2022-08-11T07:12:07.128Z,66.16
2022-08-11T07:14:58.907Z,65.76
2022-08-11T07:17:31.770Z,66.21
2022-08-11T07:20:19.988Z,66.05
2022-08-11T07:23:14.585Z,65.66
2022-08-11T07:26:02.512Z,65.51
2022-08-11T07:28:49.671Z,65.40
2022-08-11T07:31:26.946Z,65.64
2022-08-11T07:34:15.859Z,64.97
2022-08-11T07:36:52.563Z,64.65
2022-08-11T07:39:22.430Z,65.20
2022-08-11T07:41:51.246Z,65.47
2022-08-11T07:44:18.809Z,65.11
2022-08-11T07:47:08.081Z,65.51
2022-08-11T07:49:55.866Z,65.51
2022-08-11T07:52:33.968Z,66.07
2022-08-11T07:55:14.611Z,65.95
2022-08-11T07:58:16.730Z,64.91
2022-08-11T08:01:16.079Z,63.36
2022-08-11T08:04:09.280Z,62.02
2022-08-11T08:06:55.971Z,61.37
2022-08-11T08:09:42.109Z,60.94
2022-08-11T08:12:28.356Z,60.72
2022-08-11T08:15:14.721Z,60.39
2022-08-11T08:18:10.070Z,60.17
2022-08-11T08:20:45.892Z,60.09
2022-08-11T08:23:13.506Z,59.62
2022-08-11T08:25:43.427Z,59.65
2022-08-11T08:28:15.221Z,59.72
2022-08-11T08:30:50.978Z,59.20
2022-08-11T08:33:27.531Z,59.44
2022-08-11T08:36:11.741Z,59.43
2022-08-11T08:38:50.003Z,59.37
2022-08-11T08:41:30.086Z,59.17
2022-08-11T08:44:27.817Z,59.19
2022-08-11T08:46:54.590Z,58.92
2022-08-11T08:49:31.747Z,59.08
2022-08-11T08:52:26.194Z,58.87
2022-08-11T08:54:54.471Z,58.80
2022-08-11T08:57:24.126Z,58.45
2022-08-11T08:59:52.189Z,57.96
2022-08-11T09:02:34.275Z,57.51
2022-08-11T09:05:04.064Z,57.31
2022-08-11T09:07:39.775Z,56.74
2022-08-11T09:10:08.718Z,56.35
2022-08-11T09:12:38.774Z,56.29
2022-08-11T09:15:10.165Z,56.13
2022-08-11T09:17:48.357Z,56.34
2022-08-11T09:20:25.770Z,56.16
2022-08-11T09:26:22.077Z,55.59
2022-08-11T09:28:58.994Z,54.89
2022-08-11T09:31:26.959Z,54.27
2022-08-11T09:33:55.436Z,53.20
2022-08-11T09:36:41.155Z,53.43
2022-08-11T09:39:26.674Z,53.00
2022-08-11T09:42:01.459Z,52.93
2022-08-11T09:44:50.654Z,52.43
2022-08-11T09:47:21.009Z,52.06
2022-08-11T09:49:49.126Z,51.48
2022-08-11T09:52:18.068Z,51.34
2022-08-11T09:54:48.015Z,50.77
2022-08-11T09:57:37.032Z,50.62
2022-08-11T10:00:09.494Z,50.05
2022-08-11T10:02:46.134Z,50.10
2022-08-11T10:05:36.028Z,49.71
2022-08-11T10:08:03.763Z,49.73
2022-08-11T10:10:34.668Z,49.21
2022-08-11T10:13:05.316Z,48.84
2022-08-11T10:16:15.426Z,48.94
2022-08-11T10:18:49.283Z,48.78
2022-08-11T10:21:28.290Z,48.08
2022-08-11T10:24:17.225Z,46.94
2022-08-11T10:26:53.635Z,46.86
2022-08-11T10:29:45.457Z,46.68
2022-08-11T10:32:52.263Z,46.42
2022-08-11T10:35:29.014Z,45.87
2022-08-11T10:38:08.276Z,45.70
2022-08-11T10:40:39.098Z,45.18
2022-08-11T10:43:10.361Z,45.02
2022-08-11T10:45:57.609Z,45.23
2022-08-11T10:48:26.921Z,45.08
2022-08-11T10:51:13.448Z,44.93
2022-08-11T10:54:02.499Z,44.34
2022-08-11T10:56:53.879Z,44.28
2022-08-11T10:59:22.237Z,43.78
2022-08-11T11:01:50.355Z,43.88
2022-08-11T11:04:24.300Z,43.47
2022-08-11T11:07:05.934Z,43.18
2022-08-11T11:09:38.574Z,42.97
2022-08-11T11:12:42.715Z,43.05
2022-08-11T11:15:29.461Z,42.42
2022-08-11T11:18:04.923Z,42.77
2022-08-11T11:20:46.707Z,42.78
2022-08-11T11:23:20.129Z,42.86
2022-08-11T11:26:27.544Z,42.73
2022-08-11T11:29:00.338Z,42.23
2022-08-11T11:31:53.798Z,41.99
2022-08-11T11:34:53.071Z,41.83
2022-08-11T11:37:23.499Z,41.89
2022-08-11T11:39:50.670Z,41.30
2022-08-11T11:42:18.770Z,41.24
2022-08-11T11:44:46.956Z,41.42
2022-08-11T11:47:17.191Z,41.36
2022-08-11T11:49:45.155Z,41.11
2022-08-11T11:52:19.105Z,40.64
2022-08-11T11:54:52.077Z,40.46
2022-08-11T11:57:40.731Z,40.99
2022-08-11T12:00:33.817Z,40.72
2022-08-11T12:03:03.730Z,40.34
2022-08-11T12:05:33.551Z,39.51
2022-08-11T12:08:18.130Z,39.21
2022-08-11T12:11:16.608Z,39.23
2022-08-11T12:13:46.115Z,39.46
2022-08-11T12:16:34.337Z,39.36
2022-08-11T12:19:06.151Z,39.01
2022-08-11T12:21:36.007Z,38.01
2022-08-11T12:24:21.866Z,37.71
2022-08-11T12:27:14.898Z,37.39
2022-08-11T12:29:41.139Z,37.19
2022-08-11T12:32:11.379Z,37.06
2022-08-11T12:34:38.094Z,37.39
2022-08-11T12:37:13.009Z,37.56
2022-08-11T12:40:15.644Z,37.39
2022-08-11T12:43:21.856Z,37.41
2022-08-11T12:45:54.280Z,37.07
2022-08-11T12:49:01.104Z,36.46
2022-08-11T12:52:11.927Z,36.37
2022-08-11T12:55:02.131Z,36.57
2022-08-11T12:57:54.728Z,36.27
2022-08-11T13:00:41.231Z,36.70
2022-08-11T13:03:29.936Z,35.87
2022-08-11T13:05:59.633Z,35.94
2022-08-11T13:08:29.641Z,35.46
2022-08-11T13:11:17.895Z,35.48
2022-08-11T13:13:53.663Z,35.50
2022-08-11T13:16:31.594Z,35.04
2022-08-11T13:19:01.235Z,34.83
2022-08-11T13:21:29.397Z,35.16
2022-08-11T13:24:01.353Z,34.78
2022-08-11T13:26:48.132Z,34.99
2022-08-11T13:29:22.306Z,34.99
2022-08-11T13:31:50.046Z,35.37
2022-08-11T13:34:18.650Z,34.91
2022-08-11T13:36:52.176Z,35.03
2022-08-11T13:39:20.442Z,34.80
2022-08-11T13:41:48.596Z,34.27
2022-08-11T13:44:23.224Z,33.59
2022-08-11T13:46:52.925Z,33.82
2022-08-11T13:49:21.788Z,33.82
2022-08-11T13:51:49.342Z,33.16
2022-08-11T13:54:23.851Z,33.23
2022-08-11T13:56:54.467Z,33.13
2022-08-11T13:59:24.055Z,33.21
2022-08-11T14:02:21.851Z,32.58
2022-08-11T14:04:53.326Z,32.46
2022-08-11T14:07:23.091Z,32.36
2022-08-11T14:09:57.589Z,32.05
2022-08-11T14:12:48.594Z,31.78
2022-08-11T14:15:25.351Z,31.58
2022-08-11T14:18:01.732Z,31.92
2022-08-11T14:20:53.869Z,31.04
2022-08-11T14:23:27.554Z,31.10
2022-08-11T14:26:14.769Z,31.02
2022-08-11T14:28:44.967Z,31.25
2022-08-11T14:31:14.411Z,30.67
2022-08-11T14:33:58.062Z,30.29
2022-08-11T14:36:31.168Z,29.72
2022-08-11T14:38:58.259Z,29.28
2022-08-11T14:42:11.714Z,29.30
2022-08-11T14:44:54.526Z,29.50
2022-08-11T14:47:23.681Z,29.88
2022-08-11T14:49:58.410Z,29.20
2022-08-11T14:52:55.146Z,29.41
2022-08-11T14:55:45.146Z,28.96
2022-08-11T14:58:18.966Z,28.63
2022-08-11T15:00:46.576Z,27.89
2022-08-11T15:03:15.324Z,27.64
2022-08-11T15:05:57.261Z,27.96
2022-08-11T15:08:47.455Z,27.71
2022-08-11T15:11:35.337Z,28.20
2022-08-11T15:14:05.427Z,27.20
2022-08-11T15:16:51.367Z,27.66
2022-08-11T15:19:21.264Z,28.08
2022-08-11T15:22:08.273Z,27.88
2022-08-11T15:24:36.748Z,28.24
2022-08-11T15:27:35.848Z,28.29
2022-08-11T15:30:33.487Z,28.12
2022-08-11T15:33:25.753Z,28.14
2022-08-11T15:36:13.306Z,28.40
2022-08-11T15:38:44.354Z,28.79
2022-08-11T15:41:34.351Z,29.01
2022-08-11T15:44:44.731Z,29.77
2022-08-11T15:47:14.529Z,29.39
2022-08-11T15:50:11.615Z,29.60
2022-08-11T15:52:39.263Z,30.32
2022-08-11T15:55:08.596Z,30.07
2022-08-11T15:57:55.457Z,30.27
2022-08-11T16:00:45.949Z,30.29
2022-08-11T16:04:06.721Z,30.12
2022-08-11T16:06:35.603Z,30.14
2022-08-11T16:09:07.444Z,30.19
2022-08-11T16:11:46.634Z,30.04
2022-08-11T16:14:34.286Z,30.31
2022-08-11T16:17:03.470Z,30.13
2022-08-11T16:19:35.717Z,29.93
2022-08-11T16:22:09.377Z,29.99
2022-08-11T16:27:04.604Z,30.34
2022-08-11T16:27:28.027Z,30.34
2022-08-11T16:29:56.271Z,29.94
2022-08-11T16:32:25.803Z,30.49
2022-08-11T16:35:17.689Z,30.09
2022-08-11T16:38:03.858Z,29.82
2022-08-11T16:40:31.237Z,30.01
2022-08-11T16:43:17.351Z,30.02
2022-08-11T16:46:03.540Z,29.78
2022-08-11T16:48:38.612Z,29.54
2022-08-11T16:51:07.416Z,29.65
2022-08-11T16:53:54.622Z,29.67
2022-08-11T16:56:25.206Z,29.47
2022-08-11T16:59:13.689Z,29.92
2022-08-11T17:01:45.163Z,29.56
2022-08-11T17:04:33.239Z,29.73
2022-08-11T17:07:40.423Z,29.61
2022-08-11T17:10:31.819Z,29.49
2022-08-11T17:13:21.246Z,30.06
2022-08-11T17:16:10.257Z,30.40
2022-08-11T17:18:48.951Z,30.70
2022-08-11T17:21:33.710Z,30.45
2022-08-11T17:24:08.476Z,30.73
2022-08-11T17:26:58.414Z,31.51
2022-08-11T17:29:24.956Z,31.68
2022-08-11T17:32:11.839Z,32.01
2022-08-11T17:35:00.942Z,32.44
2022-08-11T17:37:31.174Z,32.41
2022-08-11T17:39:59.849Z,32.71
2022-08-11T17:42:48.620Z,32.90
2022-08-11T17:45:36.102Z,32.92
2022-08-11T17:48:23.361Z,33.20
2022-08-11T17:50:52.470Z,33.26
2022-08-11T17:53:38.490Z,33.87
2022-08-11T17:56:25.943Z,33.92
2022-08-11T17:59:12.909Z,34.23
2022-08-11T18:01:41.071Z,34.12
2022-08-11T18:04:11.169Z,34.13
2022-08-11T18:06:42.518Z,34.11
2022-08-11T18:09:38.811Z,33.76
2022-08-11T18:12:28.285Z,33.61
2022-08-11T18:15:15.703Z,33.68
2022-08-11T18:18:02.079Z,33.51
2022-08-11T18:20:47.662Z,33.30
2022-08-11T18:23:46.924Z,33.62
2022-08-11T18:26:37.829Z,33.65
2022-08-11T18:29:26.080Z,34.03
2022-08-11T18:32:21.940Z,34.01
2022-08-11T18:35:14.412Z,34.35
2022-08-11T18:38:06.048Z,34.49
2022-08-11T18:40:54.290Z,34.74
2022-08-11T18:43:43.046Z,34.58
2022-08-11T18:46:31.818Z,35.19
2022-08-11T18:49:21.259Z,35.49
2022-08-11T18:52:11.356Z,35.83
2022-08-11T18:54:59.932Z,36.13
2022-08-11T18:57:52.096Z,36.25
2022-08-11T19:00:44.242Z,36.92
2022-08-11T19:03:33.054Z,37.13
2022-08-11T19:06:40.165Z,37.02
2022-08-11T19:09:30.777Z,37.30
2022-08-11T19:12:19.462Z,37.77
2022-08-11T19:15:07.093Z,37.84
2022-08-11T19:17:54.849Z,38.20
2022-08-11T19:20:43.652Z,38.42
2022-08-11T19:23:31.027Z,38.72
2022-08-11T19:26:17.454Z,39.25
2022-08-11T19:29:06.608Z,39.30
2022-08-11T19:31:52.640Z,39.68
2022-08-11T19:34:40.949Z,40.06
2022-08-11T19:37:27.349Z,39.88
2022-08-11T19:40:16.386Z,40.33
2022-08-11T19:43:02.378Z,40.48
2022-08-11T19:45:52.693Z,40.60
2022-08-11T19:48:40.932Z,40.89
2022-08-11T19:51:28.822Z,40.66
2022-08-11T19:54:15.767Z,40.92
2022-08-11T19:57:02.636Z,41.05
2022-08-11T19:59:49.046Z,41.23
2022-08-11T20:02:35.039Z,41.14
2022-08-11T20:05:20.244Z,41.34
2022-08-11T20:08:07.469Z,41.46
2022-08-11T20:10:55.870Z,41.47
2022-08-11T20:13:43.632Z,41.72
2022-08-11T20:16:32.445Z,41.77
2022-08-11T20:19:20.344Z,41.73
2022-08-11T20:22:14.529Z,42.16
2022-08-11T20:25:01.360Z,42.15
2022-08-11T20:27:55.122Z,42.26
2022-08-11T20:30:41.502Z,42.47
2022-08-11T20:33:28.202Z,42.75
2022-08-11T20:36:13.545Z,42.92
2022-08-11T20:38:59.681Z,42.96
2022-08-11T20:41:58.514Z,43.00
2022-08-11T20:44:47.317Z,43.28
2022-08-11T20:47:59.317Z,43.48
2022-08-11T20:50:45.913Z,43.78
2022-08-11T20:53:35.958Z,44.13
2022-08-11T20:56:28.361Z,44.14
2022-08-11T20:59:18.516Z,44.54
2022-08-11T21:02:09.852Z,44.65
2022-08-11T21:04:57.329Z,44.70
2022-08-11T21:07:55.519Z,45.08
2022-08-11T21:10:50.562Z,45.00
2022-08-11T21:13:39.393Z,44.99
2022-08-11T21:16:27.496Z,45.24
2022-08-11T21:19:19.180Z,45.29
2022-08-11T21:22:27.856Z,45.44
2022-08-11T21:25:16.408Z,45.60
2022-08-11T21:28:03.667Z,45.64
2022-08-11T21:30:51.088Z,45.79
2022-08-11T21:33:41.714Z,45.87
2022-08-11T21:36:27.834Z,46.25
2022-08-11T21:39:13.289Z,46.56
2022-08-11T21:41:58.801Z,46.62
2022-08-11T21:44:45.484Z,47.08
2022-08-11T21:47:43.695Z,47.12
2022-08-11T21:50:29.466Z,47.34
2022-08-11T21:53:16.841Z,47.91
2022-08-11T21:56:02.522Z,48.08
2022-08-11T21:58:49.055Z,48.08
2022-08-11T22:01:35.417Z,48.31
2022-08-11T22:04:22.152Z,48.19
2022-08-11T22:07:09.387Z,48.74
2022-08-11T22:09:55.797Z,48.50
2022-08-11T22:12:44.971Z,48.60
2022-08-11T22:15:31.225Z,48.93
2022-08-11T22:18:16.919Z,49.08
2022-08-11T22:21:03.822Z,49.24
2022-08-11T22:23:52.133Z,49.39
2022-08-11T22:26:41.210Z,49.47
2022-08-11T22:29:50.807Z,49.60
2022-08-11T22:32:35.827Z,49.54
2022-08-11T22:35:21.709Z,49.72
2022-08-11T22:38:08.132Z,50.25
2022-08-11T22:40:55.262Z,50.58
2022-08-11T22:43:40.398Z,51.10
2022-08-11T22:46:25.777Z,51.64
2022-08-11T22:49:11.687Z,52.30
2022-08-11T22:51:58.387Z,52.38
2022-08-11T22:54:44.983Z,52.83
2022-08-11T22:57:30.638Z,53.23
2022-08-11T23:00:16.688Z,53.07
2022-08-11T23:03:02.558Z,53.38
2022-08-11T23:05:48.420Z,53.26
2022-08-11T23:08:34.630Z,53.26
2022-08-11T23:11:20.570Z,53.30
2022-08-11T23:14:06.632Z,53.03
2022-08-11T23:16:52.430Z,53.03
2022-08-11T23:20:03.853Z,52.90
2022-08-11T23:22:50.304Z,52.84
2022-08-11T23:25:36.923Z,52.54
2022-08-11T23:28:24.028Z,53.11
2022-08-11T23:31:12.106Z,53.06
2022-08-11T23:34:00.836Z,52.95
2022-08-11T23:36:47.463Z,53.30
2022-08-11T23:39:36.895Z,53.37
2022-08-11T23:42:22.946Z,53.75
2022-08-11T23:45:09.668Z,53.85
2022-08-11T23:47:57.751Z,53.63
2022-08-11T23:50:43.813Z,53.87
2022-08-11T23:53:31.066Z,54.07
2022-08-11T23:56:16.889Z,54.34
2022-08-11T23:59:04.207Z,54.78
